Time;durP1;ratioP1;P1;durP2;ratioP2;P2;SDS_P1;SDS_P2;PMS_P1;PMS_P2;Temp;Humidity;BMP_temperature;BMP_pressure;BME280_temperature;BME280_humidity;BME280_pressure;Samples;Min_cycle;Max_cycle;Signal;HPM_P1;HPM_P2
2023/09/28 00:03:22;;;;;;;2.03;1.80;;;;;;;17.02;nan;61133.44;5035308;28;20187;-64
2023/09/28 00:05:47;;;;;;;1.08;1.08;;;;;;;16.89;nan;61165.25;5034613;28;20287;-63
2023/09/28 00:10:57;;;;;;;1.58;1.48;;;;;;;17.02;nan;61254.75;5033085;28;20844;-64
2023/09/28 00:13:41;;;;;;;1.33;1.20;;;;;;;16.84;nan;61288.03;5033639;28;20168;-64
2023/09/28 00:16:07;;;;;;;1.75;1.58;;;;;;;16.57;nan;61072.41;5034353;28;20167;-64
2023/09/28 00:18:51;;;;;;;1.73;1.30;;;;;;;16.86;nan;61236.13;5034497;28;20160;-66
2023/09/28 00:21:35;;;;;;;0.90;0.90;;;;;;;16.98;nan;61252.25;5034092;28;20246;-63
2023/09/28 00:24:02;;;;;;;1.00;0.90;;;;;;;16.73;nan;61193.66;5032525;28;20245;-63
2023/09/28 00:26:28;;;;;;;1.15;1.15;;;;;;;16.88;nan;61259.03;5033984;28;20199;-64
2023/09/28 00:28:53;;;;;;;1.55;1.45;;;;;;;16.85;nan;61335.63;5034076;28;20518;-64
2023/09/28 00:31:19;;;;;;;1.17;1.08;;;;;;;16.83;nan;61223.00;5034003;28;20175;-64
2023/09/28 00:33:44;;;;;;;1.08;1.05;;;;;;;16.74;nan;61231.44;5033774;28;20281;-62
2023/09/28 00:36:09;;;;;;;1.15;1.05;;;;;;;16.79;nan;61329.97;5033592;28;20686;-64
2023/09/28 00:38:35;;;;;;;1.40;1.30;;;;;;;16.58;nan;61148.91;5033811;28;20229;-67
2023/09/28 00:41:00;;;;;;;0.95;0.95;;;;;;;16.72;nan;61244.09;5033819;28;20545;-64
2023/09/28 00:43:27;;;;;;;1.30;1.20;;;;;;;16.45;nan;61102.75;5033817;28;20252;-64
2023/09/28 00:46:11;;;;;;;1.65;1.30;;;;;;;16.60;nan;61187.28;5033723;28;20199;-63
2023/09/28 00:48:51;;;;;;;1.48;1.10;;;;;;;16.67;nan;61199.78;5033816;28;20183;-66
2023/09/28 00:51:35;;;;;;;1.45;1.20;;;;;;;16.49;nan;61114.97;5033555;28;20171;-64
2023/09/28 00:54:02;;;;;;;2.10;1.50;;;;;;;16.32;nan;61269.13;5033753;28;20179;-63
2023/09/28 00:56:30;;;;;;;2.08;1.73;;;;;;;16.32;nan;61274.81;5033451;28;20219;-64
2023/09/28 00:58:56;;;;;;;1.55;1.20;;;;;;;16.25;nan;61076.19;5033249;28;20174;-64
2023/09/28 01:04:06;;;;;;;1.13;1.02;;;;;;;16.14;nan;61235.88;5033447;28;20186;-65
2023/09/28 01:06:35;;;;;;;4.13;1.55;;;;;;;16.35;nan;61187.44;5033469;28;20211;-63
2023/09/28 01:09:18;;;;;;;1.40;1.30;;;;;;;16.27;nan;61086.19;5033317;28;20262;-64
2023/09/28 01:11:45;;;;;;;1.17;1.08;;;;;;;16.05;nan;61109.78;5033215;28;20179;-63
2023/09/28 01:14:10;;;;;;;1.40;1.30;;;;;;;16.17;nan;61229.53;5033287;28;20649;-64
2023/09/28 01:16:36;;;;;;;1.52;1.42;;;;;;;16.27;nan;61322.75;5033166;28;20179;-64
2023/09/28 01:19:02;;;;;;;1.65;1.23;;;;;;;16.27;nan;61130.00;5033029;28;20175;-63
2023/09/28 01:21:30;;;;;;;1.35;1.25;;;;;;;16.26;nan;61138.59;5033014;28;20182;-63
2023/09/28 01:23:57;;;;;;;1.23;1.00;;;;;;;16.19;nan;61334.31;5032682;28;20199;-64
2023/09/28 01:26:22;;;;;;;1.13;1.13;;;;;;;16.03;nan;61053.41;5032992;28;20740;-63
2023/09/28 01:28:48;;;;;;;1.27;1.13;;;;;;;16.22;nan;61082.56;5032979;28;20210;-63
2023/09/28 01:31:13;;;;;;;1.23;1.17;;;;;;;16.33;nan;61208.34;5032833;28;20186;-63
2023/09/28 01:33:38;;;;;;;1.38;1.27;;;;;;;16.11;nan;61028.94;5031558;28;20554;-63
2023/09/28 01:36:22;;;;;;;1.23;1.13;;;;;;;16.06;nan;61128.94;5031845;28;20222;-63
2023/09/28 01:41:39;;;;;;;1.42;1.30;;;;;;;16.27;nan;61207.31;5033031;28;20604;-65
2023/09/28 01:44:23;;;;;;;1.65;1.35;;;;;;;16.56;nan;61216.25;5032675;28;20254;-63
2023/09/28 01:46:49;;;;;;;1.30;1.20;;;;;;;16.51;nan;61114.66;5032445;28;20195;-65
2023/09/28 01:49:14;;;;;;;1.33;1.23;;;;;;;16.67;nan;61145.59;5032640;28;20163;-63
2023/09/28 01:51:40;;;;;;;2.05;1.30;;;;;;;16.76;nan;61197.03;5032554;28;20567;-63
2023/09/28 01:54:05;;;;;;;1.30;1.20;;;;;;;16.62;nan;61176.06;5032472;28;20179;-64
2023/09/28 01:56:30;;;;;;;1.45;1.20;;;;;;;16.53;nan;61302.59;5032087;28;20219;-63
2023/09/28 01:59:14;;;;;;;1.88;1.35;;;;;;;16.68;nan;61289.16;5032322;28;20210;-63
2023/09/28 02:05:03;;;;;;;1.33;1.23;;;;;;;16.56;nan;61192.50;5032073;28;20198;-63
2023/09/28 02:07:28;;;;;;;1.23;1.13;;;;;;;16.50;nan;61145.03;5032204;28;20609;-63
2023/09/28 02:09:54;;;;;;;1.58;1.48;;;;;;;16.35;nan;61254.47;5031961;28;20168;-64
2023/09/28 02:12:19;;;;;;;1.60;1.30;;;;;;;16.51;nan;61310.66;5032138;28;20195;-62
2023/09/28 02:17:48;;;;;;;3.05;1.25;;;;;;;16.19;nan;61314.28;5032321;28;20607;-65
2023/09/28 02:20:22;;;;;;;1.45;1.35;;;;;;;16.07;nan;61128.06;5031646;28;20175;-64
2023/09/28 02:23:09;;;;;;;1.23;1.13;;;;;;;16.07;nan;61191.91;5032097;28;20164;-64
2023/09/28 02:25:34;;;;;;;1.10;1.00;;;;;;;16.18;nan;61088.34;5031856;28;20183;-64
2023/09/28 02:28:18;;;;;;;1.60;1.50;;;;;;;16.17;nan;61123.31;5031578;28;20193;-64
2023/09/28 02:30:43;;;;;;;1.38;1.27;;;;;;;16.05;nan;60973.78;5032012;28;20591;-64
2023/09/28 02:33:10;;;;;;;1.98;1.40;;;;;;;16.08;nan;61010.09;5031785;28;20250;-64
2023/09/28 02:35:36;;;;;;;1.20;0.98;;;;;;;16.19;nan;61056.53;5031892;28;20651;-64
2023/09/28 02:38:20;;;;;;;1.88;1.73;;;;;;;16.47;nan;61105.56;5031689;28;20172;-63
2023/09/28 02:40:45;;;;;;;3.22;1.63;;;;;;;16.16;nan;61176.88;5031720;28;20155;-62
2023/09/28 02:43:10;;;;;;;1.20;1.10;;;;;;;16.45;nan;61085.25;5031309;28;20167;-63
2023/09/28 02:45:36;;;;;;;1.48;1.38;;;;;;;16.33;nan;61247.03;5031513;28;20309;-64
2023/09/28 02:48:01;;;;;;;1.02;1.02;;;;;;;16.34;nan;61289.97;5031633;28;20315;-63
2023/09/28 02:50:45;;;;;;;1.10;0.90;;;;;;;16.45;nan;61129.09;5031347;28;20178;-63
2023/09/28 02:53:29;;;;;;;1.92;1.20;;;;;;;16.48;nan;61142.78;5031922;28;20618;-63
2023/09/28 02:55:55;;;;;;;0.80;0.80;;;;;;;16.65;nan;61198.06;5031434;28;20317;-63
2023/09/28 02:58:39;;;;;;;1.25;1.15;;;;;;;16.74;nan;61215.41;5030278;28;20342;-63
2023/09/28 03:03:49;;;;;;;0.98;0.95;;;;;;;16.83;nan;61212.09;5031373;28;20539;-63
2023/09/28 03:06:15;;;;;;;1.38;1.27;;;;;;;16.86;nan;61171.63;5031328;28;20279;-64
2023/09/28 03:11:43;;;;;;;1.15;1.05;;;;;;;16.69;nan;61183.97;5031166;28;20186;-66
2023/09/28 03:14:08;;;;;;;1.02;1.00;;;;;;;16.97;nan;61243.94;5031226;28;20643;-63
2023/09/28 03:16:34;;;;;;;0.77;0.77;;;;;;;16.92;nan;61180.97;5031395;28;20164;-64
2023/09/28 03:19:00;;;;;;;2.10;1.38;;;;;;;16.95;nan;61339.75;5031405;28;20254;-65
2023/09/28 03:21:29;;;;;;;1.38;1.27;;;;;;;17.09;nan;61331.78;5030019;28;20183;-65
2023/09/28 03:24:01;;;;;;;1.92;1.35;;;;;;;17.06;nan;61281.94;5030566;28;20184;-65
2023/09/28 03:26:30;;;;;;;1.25;1.10;;;;;;;17.27;nan;61538.03;5035420;28;20222;-64
2023/09/28 03:28:56;;;;;;;1.20;1.10;;;;;;;17.14;nan;61394.22;5046854;28;20328;-64
2023/09/28 03:31:22;;;;;;;0.90;0.90;;;;;;;17.18;nan;61272.81;5032632;28;20180;-64
2023/09/28 03:34:06;;;;;;;1.30;1.20;;;;;;;17.27;nan;61364.47;5034214;28;20536;-64
2023/09/28 03:36:33;;;;;;;1.23;1.13;;;;;;;17.23;nan;61329.53;5051441;28;20181;-63
2023/09/28 03:39:18;;;;;;;1.73;1.35;;;;;;;17.21;nan;61378.91;5051229;28;20158;-64
2023/09/28 03:41:44;;;;;;;1.40;1.30;;;;;;;17.13;nan;61295.00;5050683;28;20649;-64
2023/09/28 03:44:09;;;;;;;1.17;1.10;;;;;;;17.11;nan;61408.88;5051010;28;20174;-64
2023/09/28 03:46:35;;;;;;;1.10;1.00;;;;;;;17.37;nan;61319.53;5050746;28;20335;-65
2023/09/28 03:49:00;;;;;;;1.25;1.13;;;;;;;17.27;nan;61352.13;5049730;28;20640;-64
2023/09/28 03:51:44;;;;;;;2.40;1.10;;;;;;;17.04;nan;61408.72;5051148;28;20185;-65
2023/09/28 03:54:11;;;;;;;1.30;1.20;;;;;;;17.21;nan;61252.97;5050744;28;20179;-63
2023/09/28 03:56:36;;;;;;;1.05;0.95;;;;;;;17.09;nan;61311.13;5050185;28;20669;-64
2023/09/28 03:59:02;;;;;;;1.27;1.17;;;;;;;17.17;nan;61310.41;5050940;28;20167;-63
2023/09/28 04:01:46;;;;;;;2.05;1.45;;;;;;;17.26;nan;61417.53;5044192;28;20190;-64
2023/09/28 04:04:12;;;;;;;2.35;1.30;;;;;;;17.10;nan;61260.63;5034688;28;20626;-64
2023/09/28 04:06:37;;;;;;;1.65;1.40;;;;;;;17.07;nan;61264.97;5034161;28;20202;-65
2023/09/28 04:09:04;;;;;;;1.35;1.25;;;;;;;17.06;nan;61297.41;5034148;28;20163;-65
2023/09/28 04:11:48;;;;;;;1.35;1.25;;;;;;;16.79;nan;61239.09;5034054;28;20282;-63
2023/09/28 04:14:32;;;;;;;2.60;1.55;;;;;;;17.14;nan;61262.56;5034289;28;20546;-64
2023/09/28 04:16:57;;;;;;;1.90;1.40;;;;;;;17.20;nan;61324.09;5032790;28;20266;-64
2023/09/28 04:19:22;;;;;;;5.10;1.83;;;;;;;17.24;nan;61307.44;5044048;28;20266;-64
2023/09/28 04:21:48;;;;;;;1.75;1.00;;;;;;;17.19;nan;61400.44;5041973;28;20175;-65
2023/09/28 04:24:14;;;;;;;1.00;0.90;;;;;;;17.00;nan;61264.84;5043850;28;20175;-64
2023/09/28 04:26:40;;;;;;;2.08;1.30;;;;;;;16.93;nan;61407.16;5043794;28;20230;-64
2023/09/28 04:29:05;;;;;;;1.85;1.30;;;;;;;17.13;nan;61254.25;5042183;28;20184;-64
2023/09/28 04:34:15;;;;;;;5.03;1.20;;;;;;;17.26;nan;61312.25;5033282;28;20194;-64
2023/09/28 04:36:41;;;;;;;1.75;1.40;;;;;;;17.35;nan;61339.94;5033748;28;20516;-65
2023/09/28 04:39:10;;;;;;;1.65;1.55;;;;;;;17.36;nan;61300.31;5033563;28;20183;-64
2023/09/28 04:41:36;;;;;;;1.38;1.27;;;;;;;16.95;nan;61390.78;5033146;28;20287;-66
2023/09/28 04:44:02;;;;;;;0.95;0.95;;;;;;;17.18;nan;61318.72;5033694;28;20225;-64
2023/09/28 04:46:27;;;;;;;1.60;1.40;;;;;;;17.28;nan;61357.84;5033527;28;20916;-64
2023/09/28 04:48:54;;;;;;;1.45;1.35;;;;;;;17.25;nan;61574.47;5033504;28;20168;-64
2023/09/28 04:51:19;;;;;;;1.80;1.23;;;;;;;17.42;nan;61503.38;5033511;28;20198;-63
2023/09/28 04:53:45;;;;;;;1.63;1.33;;;;;;;17.17;nan;61420.84;5033698;28;20203;-64
2023/09/28 04:56:12;;;;;;;1.42;1.33;;;;;;;17.22;nan;61323.22;5032156;28;20219;-64
2023/09/28 04:58:38;;;;;;;1.40;1.30;;;;;;;17.37;nan;61352.53;5041434;28;20642;-64
2023/09/28 05:01:22;;;;;;;2.40;1.75;;;;;;;17.51;nan;61423.16;5042303;28;20175;-65
2023/09/28 05:03:48;;;;;;;1.30;1.20;;;;;;;17.60;nan;61487.63;5033576;28;20179;-64
2023/09/28 05:06:13;;;;;;;2.58;1.27;;;;;;;17.64;nan;61430.13;5051253;28;20225;-64
2023/09/28 05:08:38;;;;;;;1.35;1.25;;;;;;;17.53;nan;61479.66;5052902;28;20699;-64
2023/09/28 05:11:05;;;;;;;1.40;1.30;;;;;;;17.61;nan;61491.34;5042647;28;20190;-64
2023/09/28 05:13:31;;;;;;;1.17;1.08;;;;;;;17.51;nan;61392.16;5037790;28;20275;-63
2023/09/28 05:15:56;;;;;;;1.98;1.20;;;;;;;17.48;nan;61372.72;5037917;28;20714;-64
2023/09/28 05:18:21;;;;;;;0.75;0.73;;;;;;;17.64;nan;61548.41;5032774;28;20197;-65
2023/09/28 05:20:47;;;;;;;1.58;1.48;;;;;;;17.74;nan;61365.38;5032847;28;20171;-64
2023/09/28 05:23:31;;;;;;;5.25;2.35;;;;;;;17.79;nan;61402.63;5030507;28;20179;-64
2023/09/28 05:25:56;;;;;;;1.17;1.00;;;;;;;17.79;nan;61518.34;5037426;28;20225;-65
2023/09/28 05:28:22;;;;;;;2.50;1.63;;;;;;;17.60;nan;61450.88;5037475;28;20203;-65
2023/09/28 05:30:47;;;;;;;1.48;1.38;;;;;;;17.78;nan;61506.88;5032748;28;20607;-66
2023/09/28 05:33:13;;;;;;;1.45;1.35;;;;;;;17.97;nan;61391.97;5052651;28;20217;-64
2023/09/28 05:35:40;;;;;;;1.40;1.30;;;;;;;16.83;nan;61400.44;5052725;28;20178;-64
2023/09/28 05:38:05;;;;;;;3.25;1.30;;;;;;;18.08;nan;61404.38;5052761;28;20173;-65
2023/09/28 05:40:31;;;;;;;3.40;1.33;;;;;;;18.21;nan;61441.81;5052803;28;20207;-64
2023/09/28 05:42:56;;;;;;;1.42;1.33;;;;;;;18.30;nan;61497.97;5052633;28;20507;-65
2023/09/28 05:45:21;;;;;;;1.25;1.15;;;;;;;18.46;nan;61495.38;5052439;28;20740;-66
2023/09/28 05:48:05;;;;;;;3.33;1.70;;;;;;;18.56;nan;61539.78;5052461;28;20178;-63
2023/09/28 05:50:31;;;;;;;2.78;1.45;;;;;;;18.46;nan;61361.41;5053007;28;20184;-64
2023/09/28 05:52:56;;;;;;;1.85;1.60;;;;;;;18.72;nan;61542.97;5052159;28;20158;-63
2023/09/28 05:55:24;;;;;;;1.75;1.02;;;;;;;18.98;nan;61779.56;5052038;28;20631;-64
2023/09/28 05:57:50;;;;;;;1.15;1.05;;;;;;;19.15;nan;61562.03;5050731;28;20227;-63
2023/09/28 06:00:17;;;;;;;1.90;1.35;;;;;;;19.44;nan;61801.66;5052124;28;20598;-66
2023/09/28 06:03:01;;;;;;;1.10;1.00;;;;;;;19.51;nan;61675.44;5051770;28;20175;-65
2023/09/28 06:05:46;;;;;;;3.00;1.17;;;;;;;19.65;nan;61706.28;5051692;28;20429;-64
2023/09/28 06:08:11;;;;;;;1.20;1.05;;;;;;;19.75;nan;61878.94;5052150;28;20178;-65
2023/09/28 06:13:20;;;;;;;1.10;1.00;;;;;;;19.89;nan;61548.84;5052580;28;20227;-64
2023/09/28 06:18:30;;;;;;;1.55;1.20;;;;;;;20.20;nan;61918.63;5052068;28;20227;-65
2023/09/28 06:20:55;;;;;;;1.30;1.20;;;;;;;20.21;nan;61696.63;5052408;28;20175;-66
2023/09/28 06:23:21;;;;;;;1.63;1.30;;;;;;;20.48;nan;61846.13;5052448;28;20233;-65
2023/09/28 06:25:47;;;;;;;1.38;1.13;;;;;;;20.32;nan;61711.72;5051039;28;20250;-64
2023/09/28 06:28:12;;;;;;;1.55;1.35;;;;;;;20.42;nan;61841.91;5052471;28;20182;-63
2023/09/28 06:30:38;;;;;;;1.35;1.25;;;;;;;20.23;nan;61688.53;5051800;28;20167;-63
2023/09/28 06:33:04;;;;;;;2.35;1.30;;;;;;;20.57;nan;61963.38;5052434;28;20166;-65
2023/09/28 06:35:48;;;;;;;1.48;1.25;;;;;;;20.73;nan;61817.41;5051907;28;20561;-65
2023/09/28 06:38:14;;;;;;;1.95;1.42;;;;;;;20.63;nan;61835.19;5052280;28;20630;-63
2023/09/28 06:44:00;;;;;;;1.25;1.05;;;;;;;20.80;nan;61713.13;5051473;28;20568;-64
2023/09/28 06:46:26;;;;;;;1.83;1.40;;;;;;;21.15;nan;61817.81;5051494;28;20759;-65
2023/09/28 06:48:51;;;;;;;1.42;1.30;;;;;;;20.98;nan;61756.94;5051723;28;20175;-64
2023/09/28 06:51:19;;;;;;;1.90;1.70;;;;;;;21.32;nan;61915.09;5051492;28;20641;-65
2023/09/28 06:53:45;;;;;;;2.03;1.73;;;;;;;21.17;nan;61918.28;5051635;28;20171;-64
2023/09/28 06:56:30;;;;;;;1.95;1.55;;;;;;;21.42;nan;61793.88;5050219;28;20692;-67
2023/09/28 06:58:55;;;;;;;3.28;2.22;;;;;;;21.34;nan;61810.81;5052223;28;20178;-64
2023/09/28 07:01:58;;;;;;;1.92;1.65;;;;;;;21.67;nan;61943.94;5057956;28;20182;-65
2023/09/28 07:04:23;;;;;;;1.27;1.02;;;;;;;21.79;nan;61871.75;5052097;28;20167;-64
2023/09/28 07:06:49;;;;;;;3.67;2.17;;;;;;;21.63;nan;61965.41;5051949;28;20213;-64
2023/09/28 07:09:14;;;;;;;1.45;1.35;;;;;;;21.90;nan;62040.34;5051604;28;20249;-64
2023/09/28 07:14:24;;;;;;;3.33;2.45;;;;;;;22.14;nan;61894.78;5051591;28;20200;-65
2023/09/28 07:17:08;;;;;;;1.20;1.10;;;;;;;22.56;nan;62049.31;5052149;28;20642;-65
2023/09/28 07:19:52;;;;;;;3.40;1.05;;;;;;;22.63;nan;62077.53;5051995;28;20177;-63
2023/09/28 07:22:20;;;;;;;1.83;1.40;;;;;;;23.26;nan;62101.84;5051624;28;20207;-62
2023/09/28 07:24:46;;;;;;;0.80;0.80;;;;;;;23.42;nan;62190.50;5051433;28;20175;-64
2023/09/28 07:27:12;;;;;;;1.23;1.05;;;;;;;23.58;nan;62148.22;5051298;28;20210;-65
2023/09/28 07:29:38;;;;;;;1.20;1.10;;;;;;;23.40;nan;62070.84;5051927;28;20163;-64
2023/09/28 07:35:09;;;;;;;1.05;0.95;;;;;;;23.60;nan;62098.88;5053486;28;20164;-65
2023/09/28 07:37:35;;;;;;;1.60;1.15;;;;;;;23.49;nan;62070.69;5054728;28;20604;-64
2023/09/28 07:40:01;;;;;;;3.17;1.30;;;;;;;23.70;nan;62131.13;5055096;28;20252;-65
2023/09/28 07:42:27;;;;;;;1.45;1.35;;;;;;;23.78;nan;62218.53;5055671;28;20178;-65
2023/09/28 07:44:52;;;;;;;1.38;1.00;;;;;;;24.23;nan;62328.28;5055258;28;20544;-66
2023/09/28 07:47:19;;;;;;;1.75;1.42;;;;;;;24.20;nan;62139.97;5055210;28;20226;-63
2023/09/28 07:50:03;;;;;;;2.03;1.40;;;;;;;23.98;nan;62188.00;5055290;28;20175;-66
2023/09/28 07:52:29;;;;;;;2.20;1.20;;;;;;;23.97;nan;62118.97;5055243;28;20648;-66
2023/09/28 07:54:56;;;;;;;1.73;1.20;;;;;;;23.95;nan;62236.81;5054423;28;20179;-64
2023/09/28 07:57:22;;;;;;;1.20;1.10;;;;;;;23.75;nan;62100.28;5054114;28;20218;-64
2023/09/28 07:59:47;;;;;;;0.80;0.80;;;;;;;23.79;nan;62117.31;5054608;28;20195;-66
2023/09/28 08:02:13;;;;;;;1.13;1.02;;;;;;;23.82;nan;62112.34;5054807;28;20198;-65
2023/09/28 08:04:39;;;;;;;1.70;1.10;;;;;;;23.77;nan;62118.22;5055185;28;20178;-66
2023/09/28 08:07:04;;;;;;;1.50;1.00;;;;;;;23.82;nan;62110.28;5054749;28;20644;-63
2023/09/28 08:09:30;;;;;;;1.10;1.00;;;;;;;23.98;nan;62229.78;5054403;28;20249;-64
2023/09/28 08:11:55;;;;;;;1.70;1.20;;;;;;;23.69;nan;62083.03;5054859;28;20175;-65
2023/09/28 08:14:21;;;;;;;1.48;1.00;;;;;;;23.63;nan;62091.84;5054910;28;20575;-65
2023/09/28 08:16:48;;;;;;;1.30;1.00;;;;;;;23.91;nan;62136.22;5054391;28;20563;-65
2023/09/28 08:19:51;;;;;;;1.30;1.20;;;;;;;24.05;nan;62201.75;5055011;28;20170;-65
2023/09/28 08:22:17;;;;;;;1.63;1.52;;;;;;;24.03;nan;62256.94;5054764;28;20171;-65
2023/09/28 08:24:43;;;;;;;1.25;1.10;;;;;;;24.09;nan;62148.31;5054592;28;20526;-64
2023/09/28 08:27:27;;;;;;;1.10;0.98;;;;;;;24.25;nan;62260.03;5054321;28;20246;-64
2023/09/28 08:32:36;;;;;;;1.13;1.02;;;;;;;24.28;nan;62214.38;5054830;28;20236;-65
2023/09/28 08:35:01;;;;;;;1.23;0.80;;;;;;;24.45;nan;62183.56;5054834;28;20182;-65
2023/09/28 08:37:28;;;;;;;0.85;0.82;;;;;;;24.35;nan;62313.81;5053090;28;20186;-65
2023/09/28 08:39:55;;;;;;;0.90;0.88;;;;;;;24.73;nan;62212.31;5054460;28;20179;-67
2023/09/28 08:42:25;;;;;;;1.35;1.00;;;;;;;24.84;nan;62256.78;5054465;28;20524;-65
2023/09/28 08:44:59;;;;;;;3.00;1.63;;;;;;;24.97;nan;62346.91;5054042;28;20175;-65
2023/09/28 08:50:15;;;;;;;2.08;1.38;;;;;;;25.12;nan;62280.31;5043040;28;20186;-64
2023/09/28 08:52:40;;;;;;;1.17;0.93;;;;;;;25.35;nan;62301.34;5037609;28;20240;-65
2023/09/28 08:55:07;;;;;;;1.20;1.10;;;;;;;25.43;nan;62414.56;5040112;28;20187;-65
2023/09/28 08:57:35;;;;;;;1.40;1.30;;;;;;;25.63;nan;62379.84;5033946;28;20219;-66
2023/09/28 09:00:01;;;;;;;1.40;1.30;;;;;;;25.93;nan;62343.44;5053150;28;20189;-65
2023/09/28 09:02:28;;;;;;;0.93;0.85;;;;;;;26.15;nan;62532.44;5053954;28;20738;-64
2023/09/28 09:05:14;;;;;;;1.23;0.90;;;;;;;25.90;nan;62415.34;5051014;28;20300;-64
2023/09/28 09:07:42;;;;;;;1.48;1.38;;;;;;;26.11;nan;62413.16;5033563;28;20156;-65
2023/09/28 09:10:12;;;;;;;0.80;0.80;;;;;;;26.10;nan;62422.50;5033022;28;20608;-66
2023/09/28 09:12:37;;;;;;;1.50;1.05;;;;;;;26.17;nan;62466.63;5033200;28;20258;-66
2023/09/28 09:15:06;;;;;;;1.05;0.90;;;;;;;26.05;nan;62532.03;5033039;28;20290;-64
2023/09/28 09:17:35;;;;;;;1.75;1.20;;;;;;;26.07;nan;62547.44;5033314;28;20712;-65
2023/09/28 09:20:02;;;;;;;0.95;0.90;;;;;;;25.98;nan;62408.81;5033319;28;20183;-65
2023/09/28 09:22:29;;;;;;;2.70;1.65;;;;;;;26.18;nan;62434.25;5033165;28;20633;-67
2023/09/28 09:24:56;;;;;;;1.52;1.10;;;;;;;26.21;nan;62434.53;5033341;28;20171;-66
2023/09/28 09:27:29;;;;;;;1.65;1.00;;;;;;;26.05;nan;62500.63;5032876;28;20685;-66
2023/09/28 09:30:07;;;;;;;0.88;0.82;;;;;;;26.12;nan;62524.34;5032689;28;20562;-65
2023/09/28 09:32:34;;;;;;;1.85;1.00;;;;;;;26.14;nan;62476.84;5032891;28;20160;-65
2023/09/28 09:35:00;;;;;;;0.80;0.80;;;;;;;25.87;nan;62380.50;5032704;28;20243;-66
2023/09/28 09:37:50;;;;;;;1.55;1.08;;;;;;;26.00;nan;62487.03;5032592;28;20168;-64
2023/09/28 09:40:16;;;;;;;0.90;0.90;;;;;;;25.86;nan;62432.31;5032512;28;20155;-65
2023/09/28 09:42:41;;;;;;;1.17;0.90;;;;;;;25.77;nan;62405.75;5032653;28;20186;-64
2023/09/28 09:45:08;;;;;;;1.15;1.05;;;;;;;25.74;nan;62329.03;5031404;28;20651;-64
2023/09/28 09:47:52;;;;;;;3.08;1.67;;;;;;;25.90;nan;62478.22;5032886;28;20195;-64
2023/09/28 09:50:18;;;;;;;1.48;1.25;;;;;;;26.02;nan;62515.53;5032667;28;20172;-66
2023/09/28 09:53:05;;;;;;;0.95;0.95;;;;;;;26.39;nan;62533.72;5032253;28;20167;-65
2023/09/28 09:55:31;;;;;;;1.05;1.00;;;;;;;26.50;nan;62446.13;5032625;28;20179;-65
2023/09/28 09:58:20;;;;;;;1.75;1.02;;;;;;;26.54;nan;62587.59;5031924;28;20267;-64
2023/09/28 10:00:46;;;;;;;2.10;1.05;;;;;;;26.56;nan;62492.31;5032258;28;20171;-63
2023/09/28 10:03:12;;;;;;;2.40;1.20;;;;;;;26.27;nan;62420.41;5031689;28;20237;-64
2023/09/28 10:05:58;;;;;;;1.15;0.90;;;;;;;26.15;nan;62501.56;5032174;28;20203;-65
2023/09/28 10:08:25;;;;;;;1.15;0.85;;;;;;;25.92;nan;62391.47;5032170;28;20174;-65
2023/09/28 10:11:10;;;;;;;1.05;0.90;;;;;;;26.15;nan;62446.56;5032157;28;20190;-64
2023/09/28 10:13:36;;;;;;;0.73;0.73;;;;;;;26.64;nan;62559.13;5032193;28;20662;-65
2023/09/28 10:16:03;;;;;;;1.33;1.23;;;;;;;24.38;nan;62322.44;5030963;28;20198;-65
2023/09/28 10:19:06;;;;;;;1.02;0.93;;;;;;;27.12;nan;62658.72;5032108;28;20268;-64
2023/09/28 10:24:46;;;;;;;1.08;1.00;;;;;;;27.26;nan;62695.19;5031950;28;20271;-64
2023/09/28 10:27:30;;;;;;;0.80;0.77;;;;;;;27.09;nan;62628.47;5031294;28;20226;-65
2023/09/28 10:30:19;;;;;;;4.43;1.60;;;;;;;26.98;nan;62574.47;5031341;28;20206;-65
2023/09/28 10:32:45;;;;;;;1.35;0.90;;;;;;;27.10;nan;62676.84;5042913;28;20286;-64
2023/09/28 10:35:20;;;;;;;4.82;1.55;;;;;;;26.67;nan;62500.22;5031727;28;20228;-64
2023/09/28 10:38:20;;;;;;;1.23;1.10;;;;;;;27.08;nan;62633.16;5029729;28;20174;-65
2023/09/28 10:41:07;;;;;;;2.25;1.00;;;;;;;23.50;nan;62137.03;5031948;28;20254;-65
2023/09/28 10:43:38;;;;;;;0.63;0.60;;;;;;;26.69;nan;62546.50;5041553;28;20182;-64
2023/09/28 10:46:23;;;;;;;1.42;1.27;;;;;;;26.94;nan;62538.41;5030321;28;20203;-64
2023/09/28 10:48:51;;;;;;;0.93;0.88;;;;;;;26.94;nan;62604.00;5030349;28;20232;-64
2023/09/28 10:51:18;;;;;;;1.20;0.90;;;;;;;26.98;nan;62634.22;5030453;28;20283;-63
2023/09/28 10:53:44;;;;;;;1.35;1.02;;;;;;;27.03;nan;62548.13;5029803;28;20179;-65
2023/09/28 10:56:10;;;;;;;1.10;1.00;;;;;;;26.92;nan;62706.63;5029799;28;20261;-65
2023/09/28 10:58:37;;;;;;;0.98;0.90;;;;;;;27.15;nan;62609.09;5029784;28;20190;-66
2023/09/28 11:01:06;;;;;;;0.85;0.85;;;;;;;26.70;nan;62474.22;5030331;28;20183;-66
2023/09/28 11:03:33;;;;;;;1.02;0.90;;;;;;;26.73;nan;62504.44;5030344;28;20178;-65
2023/09/28 11:06:03;;;;;;;2.40;1.50;;;;;;;26.92;nan;62528.25;5029482;28;20286;-64
2023/09/28 11:11:51;;;;;;;1.60;1.02;;;;;;;27.44;nan;62700.06;5031157;28;20268;-65
2023/09/28 11:14:40;;;;;;;1.13;0.98;;;;;;;27.55;nan;62709.50;5034943;28;20187;-65
2023/09/28 11:17:07;;;;;;;1.08;1.00;;;;;;;27.41;nan;62625.16;5033019;28;20171;-65
2023/09/28 11:19:35;;;;;;;1.17;1.08;;;;;;;27.39;nan;62541.50;5034298;28;20554;-65
2023/09/28 11:22:00;;;;;;;1.98;1.20;;;;;;;27.43;nan;62701.53;5034546;28;20182;-64
2023/09/28 11:24:26;;;;;;;0.90;0.80;;;;;;;27.39;nan;62746.25;5050176;28;20637;-64
2023/09/28 11:27:10;;;;;;;1.45;1.15;;;;;;;27.60;nan;62717.84;5036296;28;20207;-64
2023/09/28 11:29:36;;;;;;;1.55;0.90;;;;;;;27.52;nan;62653.53;5031467;28;20642;-65
2023/09/28 11:32:01;;;;;;;1.60;1.50;;;;;;;27.47;nan;62603.72;5034113;28;20263;-65
2023/09/28 11:35:04;;;;;;;1.23;1.13;;;;;;;27.59;nan;62708.81;5033550;28;20248;-65
2023/09/28 11:41:11;;;;;;;2.22;1.15;;;;;;;27.50;nan;62706.38;5032459;28;20186;-65
2023/09/28 11:44:09;;;;;;;1.02;0.93;;;;;;;27.58;nan;62569.06;5030776;28;20194;-65
2023/09/28 11:46:36;;;;;;;1.25;1.05;;;;;;;27.68;nan;62591.03;5030566;28;20202;-65
2023/09/28 11:49:16;;;;;;;1.65;1.05;;;;;;;27.84;nan;62698.06;5032879;28;20576;-65
2023/09/28 11:51:43;;;;;;;1.00;0.65;;;;;;;27.73;nan;62671.78;5033189;28;20179;-66
2023/09/28 11:54:11;;;;;;;0.95;0.95;;;;;;;27.82;nan;62774.03;5033414;28;20662;-66
2023/09/28 11:56:36;;;;;;;1.25;1.10;;;;;;;27.99;nan;62673.22;5032852;28;20242;-64
2023/09/28 11:59:02;;;;;;;0.80;0.80;;;;;;;28.08;nan;62704.56;5037019;28;20178;-65
2023/09/28 12:01:29;;;;;;;1.90;1.38;;;;;;;27.89;nan;62674.31;5037161;28;20205;-64
2023/09/28 12:04:32;;;;;;;1.20;1.10;;;;;;;28.15;nan;62811.34;5033003;28;20164;-65
2023/09/28 12:07:16;;;;;;;2.08;1.23;;;;;;;28.41;nan;62839.13;5033293;28;20253;-65
2023/09/28 12:09:42;;;;;;;1.20;1.00;;;;;;;28.35;nan;62794.84;5031109;28;20209;-65
2023/09/28 12:12:26;;;;;;;3.20;1.23;;;;;;;28.50;nan;62819.94;5033811;28;20195;-64
2023/09/28 12:14:52;;;;;;;0.80;0.80;;;;;;;28.21;nan;62697.88;5033180;28;20175;-64
2023/09/28 12:17:18;;;;;;;1.65;1.05;;;;;;;28.35;nan;62871.09;5032626;28;20214;-64
2023/09/28 12:19:43;;;;;;;1.05;0.85;;;;;;;28.21;nan;62955.50;5032365;28;20178;-65
2023/09/28 12:22:09;;;;;;;1.27;1.08;;;;;;;28.02;nan;62692.41;5032793;28;20595;-63
2023/09/28 12:24:53;;;;;;;1.63;1.10;;;;;;;27.80;nan;62627.22;5033331;28;20622;-64
2023/09/28 12:33:07;;;;;;;1.17;0.95;;;;;;;27.47;nan;62605.78;5032309;28;20209;-64
2023/09/28 12:35:33;;;;;;;1.83;1.38;;;;;;;27.44;nan;62578.72;5032890;28;20528;-66
2023/09/28 12:37:59;;;;;;;1.10;0.90;;;;;;;27.18;nan;62547.50;5032505;28;20618;-65
2023/09/28 12:40:43;;;;;;;1.83;1.55;;;;;;;26.95;nan;62534.31;5033381;28;20236;-64
2023/09/28 12:43:09;;;;;;;3.72;1.10;;;;;;;27.29;nan;62558.91;5032209;28;20719;-64
2023/09/28 12:45:35;;;;;;;0.80;0.80;;;;;;;27.24;nan;62593.72;5032161;28;20233;-66
2023/09/28 12:48:02;;;;;;;1.42;0.93;;;;;;;27.27;nan;62546.72;5032034;28;20183;-65
2023/09/28 12:50:32;;;;;;;1.10;0.90;;;;;;;27.27;nan;62569.78;5032779;28;20642;-63
2023/09/28 12:56:00;;;;;;;1.65;1.08;;;;;;;27.15;nan;62562.41;5031803;28;20240;-66
2023/09/28 12:58:44;;;;;;;1.10;0.95;;;;;;;27.43;nan;62677.31;5031908;28;20179;-64
2023/09/28 13:01:13;;;;;;;1.05;0.90;;;;;;;27.17;nan;62664.44;5032251;28;20251;-66
2023/09/28 13:03:39;;;;;;;3.40;1.65;;;;;;;27.12;nan;62571.53;5040002;28;20244;-64
2023/09/28 13:06:04;;;;;;;0.98;0.88;;;;;;;27.05;nan;62503.19;5036472;28;20682;-65
2023/09/28 13:08:31;;;;;;;1.20;1.10;;;;;;;27.21;nan;62665.81;5036307;28;20186;-65
2023/09/28 13:10:56;;;;;;;0.98;0.90;;;;;;;27.39;nan;62586.69;5034745;28;20183;-65